Time;durP1;ratioP1;P1;durP2;ratioP2;P2;SDS_P1;SDS_P2;PMS_P1;PMS_P2;Temp;Humidity;BMP_temperature;BMP_pressure;BME280_temperature;BME280_humidity;BME280_pressure;Samples;Min_cycle;Max_cycle;Signal;HPM_P1;HPM_P2
2024/01/14 00:00:56;;;;;;;9.70;6.90;;;;;;;20.75;26.17;100822.44;103362;1288;63302;-78
2024/01/14 00:03:24;;;;;;;9.70;7.10;;;;;;;20.76;26.10;100823.81;103553;1283;62268;-78
2024/01/14 00:05:50;;;;;;;9.80;7.50;;;;;;;20.76;26.10;100824.70;103579;1281;72438;-77
2024/01/14 00:08:16;;;;;;;9.50;7.40;;;;;;;20.76;26.09;100825.25;103657;1286;63500;-78
2024/01/14 00:10:41;;;;;;;11.30;7.50;;;;;;;20.75;26.02;100821.38;103540;1283;62608;-79
2024/01/14 00:13:08;;;;;;;9.50;7.50;;;;;;;20.75;25.98;100822.60;103719;1283;62517;-79
2024/01/14 00:15:33;;;;;;;9.40;7.10;;;;;;;20.76;25.98;100816.30;103574;1283;62954;-79
2024/01/14 00:17:59;;;;;;;10.20;7.00;;;;;;;20.76;26.01;100809.86;103596;1286;63486;-79
2024/01/14 00:20:25;;;;;;;10.00;7.40;;;;;;;20.75;26.06;100800.96;103521;1286;76195;-78
2024/01/14 00:22:51;;;;;;;9.60;7.10;;;;;;;20.75;26.10;100788.43;103562;1287;62197;-78
2024/01/14 00:25:19;;;;;;;9.00;7.00;;;;;;;20.76;26.15;100787.52;103712;1283;62177;-79
2024/01/14 00:27:45;;;;;;;8.80;7.10;;;;;;;20.76;26.04;100789.64;103730;1283;71584;-78
2024/01/14 00:30:11;;;;;;;10.00;7.20;;;;;;;20.76;26.15;100783.74;103528;1283;62573;-77
2024/01/14 00:32:38;;;;;;;10.20;7.20;;;;;;;20.76;26.17;100776.43;103564;1283;62172;-78
2024/01/14 00:35:04;;;;;;;9.40;7.20;;;;;;;20.76;26.02;100766.77;103671;1283;62233;-78
2024/01/14 00:37:30;;;;;;;9.90;7.40;;;;;;;20.76;25.98;100767.98;103556;1283;62233;-79
2024/01/14 00:39:57;;;;;;;8.80;6.50;;;;;;;20.76;26.06;100768.58;103691;1285;62797;-79
2024/01/14 00:42:22;;;;;;;9.20;7.00;;;;;;;20.75;26.17;100761.81;103422;1283;62843;-79
2024/01/14 00:44:48;;;;;;;9.10;7.20;;;;;;;20.75;26.06;100757.52;103716;1282;63374;-78
2024/01/14 00:47:14;;;;;;;9.60;7.20;;;;;;;20.76;26.00;100753.54;103524;1288;62372;-78
2024/01/14 00:49:39;;;;;;;9.70;7.50;;;;;;;20.75;25.99;100755.52;103375;1283;63468;-80
2024/01/14 00:52:05;;;;;;;11.20;6.80;;;;;;;20.75;26.13;100748.75;103380;1288;77439;-79
2024/01/14 00:54:32;;;;;;;9.50;7.20;;;;;;;20.75;25.98;100747.14;103691;1283;62228;-79
2024/01/14 00:56:58;;;;;;;8.90;7.00;;;;;;;20.75;26.02;100747.66;103736;1283;62086;-78
2024/01/14 00:59:24;;;;;;;8.90;6.90;;;;;;;20.75;25.99;100748.21;103530;1287;63796;-78
2024/01/14 01:01:50;;;;;;;8.60;6.40;;;;;;;20.75;26.10;100744.27;103381;1283;63538;-79
2024/01/14 01:04:15;;;;;;;10.70;7.40;;;;;;;20.75;26.08;100736.41;103566;1287;63364;-78
2024/01/14 01:06:41;;;;;;;9.00;6.60;;;;;;;20.75;25.99;100727.46;103542;1283;63223;-78
2024/01/14 01:09:07;;;;;;;10.30;7.20;;;;;;;20.75;25.92;100728.01;103773;1282;63380;-79
2024/01/14 01:11:33;;;;;;;9.30;6.90;;;;;;;20.75;25.91;100730.68;103401;1283;72424;-79
2024/01/14 01:13:58;;;;;;;8.60;6.80;;;;;;;20.76;26.06;100721.35;103503;1287;63454;-80
2024/01/14 01:16:27;;;;;;;9.40;7.10;;;;;;;20.75;25.95;100718.19;103588;1282;63448;-78
2024/01/14 01:18:53;;;;;;;9.40;7.00;;;;;;;20.76;26.02;100717.25;103657;1285;62194;-78
2024/01/14 01:21:22;;;;;;;9.70;7.60;;;;;;;20.75;26.06;100714.45;103475;1284;63751;-79
2024/01/14 01:24:04;;;;;;;9.20;7.10;;;;;;;20.75;26.02;100713.17;103379;1283;75005;-78
2024/01/14 01:26:30;;;;;;;9.40;7.20;;;;;;;20.75;26.03;100702.11;103772;1283;62725;-79
2024/01/14 01:28:56;;;;;;;8.80;6.90;;;;;;;20.75;25.92;100692.45;103693;1285;62162;-80
2024/01/14 01:31:22;;;;;;;9.60;7.20;;;;;;;20.75;25.98;100692.60;103600;1288;62130;-79
2024/01/14 01:33:47;;;;;;;9.40;7.10;;;;;;;20.75;25.85;100689.05;103566;1286;62311;-81
2024/01/14 01:36:13;;;;;;;9.20;6.80;;;;;;;20.75;26.10;100693.85;103626;1283;62318;-79
2024/01/14 01:38:38;;;;;;;9.00;6.70;;;;;;;20.76;25.98;100698.29;103660;1281;62134;-79
2024/01/14 01:41:05;;;;;;;9.00;7.10;;;;;;;20.75;25.96;100689.36;103561;1283;63366;-79
2024/01/14 01:43:31;;;;;;;8.70;6.50;;;;;;;20.76;25.96;100690.95;103710;1283;63327;-77
2024/01/14 01:45:56;;;;;;;9.10;6.80;;;;;;;20.75;25.91;100687.95;103697;1285;63378;-78
2024/01/14 01:48:22;;;;;;;8.80;7.10;;;;;;;20.75;26.02;100682.92;103566;1283;62623;-78
2024/01/14 01:50:49;;;;;;;9.40;6.60;;;;;;;20.75;25.96;100681.67;103700;1283;62162;-80
2024/01/14 01:53:15;;;;;;;10.30;7.10;;;;;;;20.75;26.06;100671.85;103738;1283;62174;-79
2024/01/14 01:55:41;;;;;;;8.40;6.60;;;;;;;20.75;25.92;100671.30;103570;1286;62075;-81
2024/01/14 01:58:07;;;;;;;8.40;6.70;;;;;;;20.75;25.90;100673.83;103423;1283;75978;-78
2024/01/14 02:00:34;;;;;;;9.20;6.90;;;;;;;20.76;25.76;100662.70;103546;1288;62258;-79
2024/01/14 02:03:01;;;;;;;8.70;6.30;;;;;;;20.75;25.97;100662.71;103278;1283;62245;-80
2024/01/14 02:05:29;;;;;;;8.50;6.40;;;;;;;20.76;25.85;100664.84;103393;1281;72372;-78
2024/01/14 02:07:54;;;;;;;10.10;7.30;;;;;;;20.75;25.97;100663.44;103565;1283;76216;-78
2024/01/14 02:10:20;;;;;;;9.40;6.70;;;;;;;20.76;25.96;100661.80;103408;1288;62248;-79
2024/01/14 02:12:46;;;;;;;8.90;6.70;;;;;;;20.75;25.89;100659.67;103587;1283;62165;-78
2024/01/14 02:15:11;;;;;;;10.10;7.70;;;;;;;20.75;25.85;100657.53;103549;1283;63468;-78
2024/01/14 02:17:37;;;;;;;9.00;6.70;;;;;;;20.75;25.95;100655.73;103448;1283;63564;-78
2024/01/14 02:20:03;;;;;;;9.60;6.80;;;;;;;20.75;25.88;100647.70;103439;1288;62181;-80
2024/01/14 02:22:29;;;;;;;8.80;7.00;;;;;;;20.75;25.97;100643.41;103563;1283;62265;-79
2024/01/14 02:24:55;;;;;;;9.60;6.70;;;;;;;20.76;25.84;100640.70;103554;1283;62244;-78
2024/01/14 02:27:21;;;;;;;8.90;6.50;;;;;;;20.76;25.90;100639.64;103730;1283;62779;-79
2024/01/14 02:29:47;;;;;;;9.20;6.50;;;;;;;20.76;25.91;100637.64;103708;1285;62132;-78
2024/01/14 02:32:13;;;;;;;8.50;6.20;;;;;;;20.76;25.84;100636.57;103541;1283;63407;-79
2024/01/14 02:34:39;;;;;;;8.60;6.50;;;;;;;20.76;25.84;100631.36;103724;1283;62264;-80
2024/01/14 02:37:04;;;;;;;8.50;6.70;;;;;;;20.76;25.77;100629.77;103468;1288;63453;-78
2024/01/14 02:39:30;;;;;;;8.60;6.60;;;;;;;20.76;25.80;100631.91;103615;1283;63333;-78
2024/01/14 02:41:56;;;;;;;9.30;7.00;;;;;;;20.76;25.88;100633.01;103496;1283;62188;-80
2024/01/14 02:44:21;;;;;;;9.10;6.50;;;;;;;20.76;25.72;100628.14;103698;1283;62217;-78
2024/01/14 02:46:47;;;;;;;8.30;6.50;;;;;;;20.75;25.75;100621.05;103709;1283;62164;-79
2024/01/14 02:49:13;;;;;;;8.70;6.60;;;;;;;20.75;25.74;100615.35;103586;1283;63306;-79
2024/01/14 02:51:38;;;;;;;8.10;6.10;;;;;;;20.76;25.80;100613.71;103696;1283;62165;-78
2024/01/14 02:54:04;;;;;;;8.90;6.50;;;;;;;20.76;25.70;100609.23;103717;1285;62156;-79
2024/01/14 02:56:30;;;;;;;12.30;6.30;;;;;;;20.75;25.67;100605.66;103653;1283;62126;-80
2024/01/14 02:58:56;;;;;;;8.60;6.50;;;;;;;20.75;25.90;100601.21;103573;1283;62595;-79
2024/01/14 03:01:22;;;;;;;10.10;6.80;;;;;;;20.76;25.64;100595.81;103534;1282;62207;-79
2024/01/14 03:03:48;;;;;;;8.80;6.40;;;;;;;20.75;25.77;100593.16;103605;1283;62629;-77
2024/01/14 03:06:14;;;;;;;8.10;6.10;;;;;;;20.75;25.85;100585.83;103595;1282;62409;-78
2024/01/14 03:08:39;;;;;;;9.10;5.90;;;;;;;20.76;25.93;100589.02;103552;1283;62242;-80
2024/01/14 03:11:05;;;;;;;10.10;6.40;;;;;;;20.76;25.69;100584.37;103607;1282;63357;-79
2024/01/14 03:13:31;;;;;;;7.40;5.90;;;;;;;20.76;25.77;100581.67;103570;1283;62178;-79
2024/01/14 03:15:56;;;;;;;8.10;6.10;;;;;;;20.75;25.73;100578.48;103533;1288;63372;-79
2024/01/14 03:18:22;;;;;;;10.00;6.50;;;;;;;20.76;25.67;100575.59;103659;1283;63868;-79
2024/01/14 03:20:48;;;;;;;8.60;6.40;;;;;;;20.76;25.79;100576.66;103608;1282;62581;-79
2024/01/14 03:23:13;;;;;;;8.80;6.60;;;;;;;20.76;25.61;100582.39;103389;1282;62161;-78
2024/01/14 03:25:39;;;;;;;8.40;6.40;;;;;;;20.75;25.62;100576.69;103618;1285;62181;-78
2024/01/14 03:28:05;;;;;;;7.70;6.00;;;;;;;20.75;25.74;100576.69;103388;1283;62248;-79
2024/01/14 03:30:30;;;;;;;8.90;6.30;;;;;;;20.75;25.62;100569.56;103380;1283;62216;-79
2024/01/14 03:32:56;;;;;;;8.60;6.30;;;;;;;20.75;25.78;100570.80;103588;1283;62152;-79
2024/01/14 03:35:22;;;;;;;8.60;6.20;;;;;;;20.75;25.53;100566.02;103591;1283;62197;-79
2024/01/14 03:37:48;;;;;;;8.50;6.10;;;;;;;20.75;25.57;100562.77;103604;1285;73476;-81
2024/01/14 03:40:14;;;;;;;8.70;5.70;;;;;;;20.75;25.70;100559.92;103519;1282;76088;-79
2024/01/14 03:42:40;;;;;;;8.20;6.10;;;;;;;20.75;25.68;100556.71;103575;1283;63735;-80
2024/01/14 03:45:06;;;;;;;9.10;5.90;;;;;;;20.75;25.59;100555.45;103379;1283;62224;-79
2024/01/14 03:47:32;;;;;;;7.90;5.90;;;;;;;20.75;25.72;100559.19;103560;1283;62281;-79
2024/01/14 03:49:58;;;;;;;9.00;6.50;;;;;;;20.75;25.68;100558.64;103638;1285;63063;-77
2024/01/14 03:52:23;;;;;;;8.20;6.30;;;;;;;20.75;25.67;100561.34;103624;1283;62680;-79
2024/01/14 03:54:50;;;;;;;8.10;6.10;;;;;;;20.75;25.72;100562.96;103497;1288;62593;-79
2024/01/14 03:57:16;;;;;;;7.90;6.10;;;;;;;20.75;25.60;100556.33;103626;1285;63790;-78
2024/01/14 03:59:42;;;;;;;7.60;6.10;;;;;;;20.75;25.63;100546.86;103633;1283;62756;-79
2024/01/14 04:02:08;;;;;;;7.10;5.50;;;;;;;20.75;25.65;100537.03;103529;1287;62611;-79
2024/01/14 04:04:33;;;;;;;8.80;6.70;;;;;;;20.74;25.58;100532.77;103654;1282;62670;-79
2024/01/14 04:07:01;;;;;;;7.80;5.90;;;;;;;20.74;25.48;100535.61;103564;1283;62194;-78
2024/01/14 04:09:26;;;;;;;8.40;6.20;;;;;;;20.74;25.58;100532.25;103579;1282;62198;-79
2024/01/14 04:11:52;;;;;;;7.50;5.80;;;;;;;20.74;25.70;100531.34;103614;1285;62458;-79
2024/01/14 04:14:17;;;;;;;7.40;6.10;;;;;;;20.74;25.54;100527.41;103643;1282;62919;-80
2024/01/14 04:16:43;;;;;;;8.30;5.50;;;;;;;20.74;25.56;100525.98;103645;1282;62210;-79
2024/01/14 04:19:09;;;;;;;8.90;6.20;;;;;;;20.74;25.50;100520.96;103577;1282;62181;-78
2024/01/14 04:21:34;;;;;;;9.60;6.10;;;;;;;20.74;25.46;100514.91;103549;1282;62229;-79
2024/01/14 04:24:02;;;;;;;7.30;6.00;;;;;;;20.74;25.54;100511.13;103577;1283;62546;-80
2024/01/14 04:26:28;;;;;;;8.20;6.30;;;;;;;20.74;25.51;100510.27;103586;1283;63475;-78
2024/01/14 04:28:53;;;;;;;7.40;5.90;;;;;;;20.75;25.45;100518.09;103604;1283;62476;-79
2024/01/14 04:31:19;;;;;;;8.10;6.10;;;;;;;20.74;25.47;100507.77;103538;1283;62570;-79
2024/01/14 04:33:45;;;;;;;6.90;5.50;;;;;;;20.74;25.52;100504.38;103773;1282;62158;-78
2024/01/14 04:36:11;;;;;;;7.70;6.10;;;;;;;20.74;25.51;100506.84;103234;1283;75763;-79
2024/01/14 04:38:37;;;;;;;8.90;5.90;;;;;;;20.74;25.44;100504.86;103545;1282;62208;-78
2024/01/14 04:41:03;;;;;;;8.60;6.40;;;;;;;20.75;25.42;100502.70;103636;1283;62183;-78
2024/01/14 04:43:28;;;;;;;8.10;6.00;;;;;;;20.75;25.41;100502.33;103445;1283;62934;-79
2024/01/14 04:45:54;;;;;;;7.70;6.00;;;;;;;20.75;25.50;100501.95;103528;1283;63272;-79
2024/01/14 04:48:20;;;;;;;7.90;5.80;;;;;;;20.74;25.48;100502.19;103582;1283;62134;-80
2024/01/14 04:50:45;;;;;;;8.10;6.00;;;;;;;20.75;25.49;100505.73;103601;1284;62155;-78
2024/01/14 04:53:11;;;;;;;8.70;5.80;;;;;;;20.75;25.42;100503.77;103698;1282;63383;-79
2024/01/14 04:55:38;;;;;;;8.60;6.30;;;;;;;20.75;25.56;100495.52;103537;1282;62207;-79
2024/01/14 04:58:04;;;;;;;7.40;5.60;;;;;;;20.75;25.40;100491.61;103520;1283;62642;-79
2024/01/14 05:00:29;;;;;;;8.40;6.40;;;;;;;20.75;25.40;100490.34;103551;1282;62190;-79
2024/01/14 05:02:55;;;;;;;8.90;6.60;;;;;;;20.74;25.54;100490.92;103509;1288;62197;-78
2024/01/14 05:05:21;;;;;;;7.60;5.60;;;;;;;20.75;25.52;100487.50;103177;1283;62197;-79
2024/01/14 05:07:47;;;;;;;9.10;5.90;;;;;;;20.75;25.57;100487.31;103464;1288;62223;-78
2024/01/14 05:10:13;;;;;;;8.00;5.80;;;;;;;20.75;25.55;100485.36;103606;1282;62214;-78
2024/01/14 05:12:38;;;;;;;8.00;6.00;;;;;;;20.75;25.40;100484.05;103377;1283;62101;-79
2024/01/14 05:15:05;;;;;;;7.70;5.60;;;;;;;20.75;25.44;100482.63;103529;1282;63497;-79
2024/01/14 05:17:30;;;;;;;7.90;5.90;;;;;;;20.75;25.48;100480.67;103321;1283;62801;-78
2024/01/14 05:19:56;;;;;;;8.40;6.30;;;;;;;20.75;25.43;100481.73;103537;1286;62162;-79
2024/01/14 05:22:22;;;;;;;7.90;5.80;;;;;;;20.75;25.48;100477.48;103410;1282;62969;-79
2024/01/14 05:24:50;;;;;;;7.90;6.00;;;;;;;20.75;25.43;100470.52;103348;1288;62079;-80
2024/01/14 05:27:15;;;;;;;8.10;6.00;;;;;;;20.75;25.45;100466.95;103478;1283;62255;-80
2024/01/14 05:29:42;;;;;;;7.90;5.60;;;;;;;20.75;25.36;100458.16;103481;1282;62201;-80
2024/01/14 05:32:08;;;;;;;7.80;5.80;;;;;;;20.75;25.47;100456.70;103428;1288;62203;-79
2024/01/14 05:34:34;;;;;;;8.40;5.70;;;;;;;20.75;25.46;100459.41;103207;1283;62069;-79
2024/01/14 05:37:01;;;;;;;8.40;5.90;;;;;;;20.75;25.50;100457.44;103464;1282;62379;-80
2024/01/14 05:39:27;;;;;;;8.60;5.80;;;;;;;20.75;25.49;100460.65;103468;1282;63458;-78
2024/01/14 05:41:53;;;;;;;7.50;6.00;;;;;;;20.76;25.30;100457.02;103202;1289;62149;-80
2024/01/14 05:44:18;;;;;;;6.50;5.10;;;;;;;20.75;25.41;100454.23;103425;1282;62295;-78
2024/01/14 05:46:44;;;;;;;8.30;6.00;;;;;;;20.76;25.47;100455.79;103234;1289;62261;-79
2024/01/14 05:49:10;;;;;;;7.20;5.60;;;;;;;20.75;25.51;100462.61;103651;1282;63352;-78
2024/01/14 05:51:36;;;;;;;7.40;5.80;;;;;;;20.76;25.48;100464.73;103429;1283;72004;-77
2024/01/14 05:54:03;;;;;;;7.10;5.60;;;;;;;20.75;25.36;100460.63;103344;1282;62239;-80
2024/01/14 05:56:29;;;;;;;8.30;6.10;;;;;;;20.76;25.34;100458.11;103552;1282;62223;-77
2024/01/14 05:58:55;;;;;;;6.70;5.20;;;;;;;20.75;25.50;100452.95;103463;1282;62505;-79
2024/01/14 06:01:21;;;;;;;7.90;5.50;;;;;;;20.75;25.30;100451.52;103400;1282;63307;-81
2024/01/14 06:03:47;;;;;;;8.10;6.10;;;;;;;20.75;25.35;100451.14;103421;1288;63471;-78
2024/01/14 06:06:12;;;;;;;7.80;5.60;;;;;;;20.76;25.32;100446.08;103494;1282;62642;-81
2024/01/14 06:08:38;;;;;;;8.00;6.00;;;;;;;20.76;25.44;100451.10;103214;1283;63577;-80
2024/01/14 06:11:05;;;;;;;8.10;5.80;;;;;;;20.76;25.49;100454.48;103303;1283;62257;-77
2024/01/14 06:13:30;;;;;;;8.10;5.90;;;;;;;20.76;25.51;100457.73;103390;1288;73582;-80
2024/01/14 06:15:56;;;;;;;7.60;6.00;;;;;;;20.76;25.49;100458.05;103431;1282;62568;-79
2024/01/14 06:18:22;;;;;;;7.10;5.60;;;;;;;20.76;25.44;100452.34;103567;1282;62746;-78
2024/01/14 06:20:48;;;;;;;7.50;5.60;;;;;;;20.76;25.26;100451.79;103475;1282;63339;-77
2024/01/14 06:23:13;;;;;;;7.20;5.30;;;;;;;20.76;25.27;100451.81;103505;1282;63171;-78
2024/01/14 06:25:39;;;;;;;8.80;6.10;;;;;;;20.77;25.34;100448.56;103435;1288;63294;-79
2024/01/14 06:28:06;;;;;;;7.40;5.70;;;;;;;20.77;25.28;100445.68;103570;1284;74506;-77
2024/01/14 06:30:33;;;;;;;8.40;5.70;;;;;;;20.77;25.24;100437.61;103333;1283;62236;-79
2024/01/14 06:32:59;;;;;;;9.10;5.70;;;;;;;20.77;25.35;100442.44;103396;1283;63459;-82
2024/01/14 06:35:24;;;;;;;6.70;5.20;;;;;;;20.77;25.31;100438.52;103365;1282;62350;-80
2024/01/14 06:37:50;;;;;;;7.50;5.50;;;;;;;20.77;25.42;100439.92;103309;1291;62182;-78
2024/01/14 06:40:17;;;;;;;7.40;5.50;;;;;;;20.77;25.28;100443.16;103490;1285;62300;-80
2024/01/14 06:42:43;;;;;;;7.60;5.70;;;;;;;20.78;25.23;100439.89;103243;1285;62753;-79
2024/01/14 06:45:09;;;;;;;9.00;6.00;;;;;;;20.77;25.22;100442.79;103330;1291;63365;-80
2024/01/14 06:47:35;;;;;;;7.30;5.70;;;;;;;20.77;25.37;100450.86;103278;1291;62193;-79
2024/01/14 06:50:00;;;;;;;7.70;6.00;;;;;;;20.77;25.30;100453.73;103382;1285;62226;-79
2024/01/14 06:52:26;;;;;;;7.50;5.60;;;;;;;20.77;25.26;100453.56;103206;1286;62191;-78
2024/01/14 06:54:52;;;;;;;7.80;5.70;;;;;;;20.76;25.32;100450.71;103361;1285;63335;-78
2024/01/14 06:57:18;;;;;;;8.10;5.60;;;;;;;20.76;25.30;100451.77;103350;1286;63392;-79
2024/01/14 06:59:44;;;;;;;6.90;5.60;;;;;;;20.77;25.23;100444.98;103304;1286;62562;-77
2024/01/14 07:02:12;;;;;;;7.70;5.70;;;;;;;20.77;25.20;100447.46;103472;1283;63397;-78
2024/01/14 07:04:38;;;;;;;7.40;5.90;;;;;;;20.77;25.39;100446.73;103489;1282;62183;-79
2024/01/14 07:07:04;;;;;;;7.90;5.80;;;;;;;20.77;25.11;100435.85;103373;1282;62136;-78
2024/01/14 07:09:30;;;;;;;8.70;6.00;;;;;;;20.78;25.22;100431.86;103470;1283;62188;-79
2024/01/14 07:11:56;;;;;;;8.10;6.00;;;;;;;20.77;25.28;100429.40;103423;1283;62765;-78
2024/01/14 07:14:24;;;;;;;10.10;5.80;;;;;;;20.78;25.23;100429.16;103552;1282;62572;-80
2024/01/14 07:16:50;;;;;;;8.80;5.80;;;;;;;20.77;25.37;100423.84;103527;1287;62782;-79
2024/01/14 07:19:16;;;;;;;8.20;6.00;;;;;;;20.77;25.25;100419.77;103419;1288;62117;-78
2024/01/14 07:21:41;;;;;;;7.70;5.50;;;;;;;20.76;25.22;100419.42;103402;1282;62222;-79
2024/01/14 07:24:07;;;;;;;7.80;5.90;;;;;;;20.77;25.26;100417.25;103347;1285;63388;-79
2024/01/14 07:26:33;;;;;;;9.00;5.90;;;;;;;20.77;25.22;100417.77;103531;1282;62178;-77
2024/01/14 07:28:58;;;;;;;8.40;6.30;;;;;;;20.77;25.21;100415.96;103458;1283;63389;-79
2024/01/14 07:31:27;;;;;;;8.40;5.80;;;;;;;20.77;25.26;100409.90;103391;1283;63895;-79
2024/01/14 07:33:53;;;;;;;7.60;5.80;;;;;;;20.77;25.17;100408.64;103621;1282;62561;-78
2024/01/14 07:36:19;;;;;;;7.60;5.70;;;;;;;20.77;25.36;100404.55;103334;1282;62815;-78
2024/01/14 07:38:45;;;;;;;7.90;5.70;;;;;;;20.77;25.32;100399.52;102935;1282;637894;-79
2024/01/14 07:41:13;;;;;;;8.20;5.70;;;;;;;20.77;25.26;100406.66;103314;1283;62181;-79
2024/01/14 07:43:39;;;;;;;8.80;6.00;;;;;;;20.78;25.26;100407.36;103441;1283;62218;-78
2024/01/14 07:46:06;;;;;;;7.60;5.50;;;;;;;20.78;25.17;100403.19;103713;1282;63334;-79
2024/01/14 07:48:33;;;;;;;7.90;5.60;;;;;;;20.79;25.10;100403.71;103668;1285;62067;-81
2024/01/14 07:51:00;;;;;;;7.90;5.90;;;;;;;20.79;25.14;100402.64;103699;1283;75902;-79
2024/01/14 07:53:26;;;;;;;8.60;6.20;;;;;;;20.79;25.33;100399.41;103579;1286;62111;-78
2024/01/14 07:55:52;;;;;;;7.70;5.70;;;;;;;20.79;25.19;100396.70;103846;1283;62678;-79
2024/01/14 07:58:18;;;;;;;9.40;6.10;;;;;;;20.80;25.18;100393.24;103879;1283;62273;-77
2024/01/14 08:00:44;;;;;;;7.80;5.70;;;;;;;20.80;25.29;100390.02;103618;1284;62193;-78
2024/01/14 08:03:10;;;;;;;8.30;5.90;;;;;;;20.81;25.27;100389.95;103805;1282;62184;-78
2024/01/14 08:05:35;;;;;;;7.70;5.80;;;;;;;20.81;25.23;100379.58;104085;1283;63198;-78
2024/01/14 08:08:03;;;;;;;8.40;5.80;;;;;;;20.82;25.25;100381.46;104329;1281;62161;-78
2024/01/14 08:10:28;;;;;;;7.40;5.60;;;;;;;20.82;25.17;100382.00;104700;1283;72403;-78
2024/01/14 08:12:54;;;;;;;7.80;6.10;;;;;;;20.83;25.32;100386.73;104096;1283;62252;-78
2024/01/14 08:15:19;;;;;;;8.40;6.10;;;;;;;20.84;25.38;100385.42;104125;1285;62167;-78
2024/01/14 08:17:45;;;;;;;7.70;5.80;;;;;;;20.85;25.19;100387.66;103909;1283;62652;-78
2024/01/14 08:20:11;;;;;;;8.00;5.70;;;;;;;20.86;25.22;100385.81;103656;1283;62137;-78
2024/01/14 08:22:38;;;;;;;7.50;5.70;;;;;;;20.86;25.40;100389.38;104115;1283;62286;-78
2024/01/14 08:25:04;;;;;;;8.10;5.70;;;;;;;20.87;25.16;100387.35;103790;1285;74926;-80
2024/01/14 08:27:30;;;;;;;8.00;6.00;;;;;;;20.87;25.11;100381.08;104182;1282;62199;-78
2024/01/14 08:29:56;;;;;;;8.10;6.10;;;;;;;20.88;25.33;100385.30;103641;1283;62186;-78
2024/01/14 08:32:21;;;;;;;8.60;6.40;;;;;;;20.87;25.28;100381.21;103746;1283;62174;-80
2024/01/14 08:34:47;;;;;;;6.90;5.50;;;;;;;20.88;25.27;100381.88;103737;1282;62975;-79
2024/01/14 08:37:13;;;;;;;8.50;6.10;;;;;;;20.88;25.30;100376.73;103680;1283;62165;-78
2024/01/14 08:39:39;;;;;;;8.10;5.90;;;;;;;20.87;25.23;100371.38;103619;1283;62526;-78
2024/01/14 08:42:05;;;;;;;8.10;6.50;;;;;;;20.89;25.28;100376.31;104026;1283;62202;-77
2024/01/14 08:44:31;;;;;;;8.70;6.30;;;;;;;20.89;25.27;100376.16;104022;1281;62042;-78
2024/01/14 08:46:56;;;;;;;8.40;6.00;;;;;;;20.90;25.28;100376.19;104184;1283;62184;-77
2024/01/14 08:49:24;;;;;;;8.00;6.00;;;;;;;20.90;25.32;100370.64;104066;1283;62241;-78
2024/01/14 08:51:51;;;;;;;8.00;6.20;;;;;;;20.90;25.25;100366.14;104066;1283;62059;-77
2024/01/14 08:54:17;;;;;;;8.70;6.20;;;;;;;20.91;25.25;100367.68;103724;1282;62346;-78
2024/01/14 08:56:43;;;;;;;8.20;6.00;;;;;;;20.92;25.31;100353.52;103858;1282;62191;-78
2024/01/14 08:59:09;;;;;;;8.90;6.50;;;;;;;20.92;25.23;100358.30;103640;1283;63434;-78
2024/01/14 09:01:35;;;;;;;8.80;6.50;;;;;;;20.92;25.29;100357.40;103558;1281;62207;-80
2024/01/14 09:04:00;;;;;;;8.40;6.20;;;;;;;20.92;25.22;100353.50;103732;1283;62556;-79
2024/01/14 09:06:26;;;;;;;7.90;5.80;;;;;;;20.93;25.29;100355.39;103777;1285;62225;-78
2024/01/14 09:08:52;;;;;;;8.10;6.00;;;;;;;20.93;25.28;100352.55;103203;1291;74825;-77
2024/01/14 09:11:17;;;;;;;9.30;6.30;;;;;;;20.93;25.26;100345.73;103630;1283;62197;-79
2024/01/14 09:13:45;;;;;;;8.30;6.30;;;;;;;20.93;25.29;100344.66;103630;1283;62106;-78
2024/01/14 09:16:12;;;;;;;8.50;5.80;;;;;;;20.93;25.37;100340.88;103639;1283;62165;-79
2024/01/14 09:18:37;;;;;;;8.90;5.80;;;;;;;20.93;25.17;100333.36;103708;1283;62535;-80
2024/01/14 09:21:03;;;;;;;8.20;6.10;;;;;;;20.93;25.18;100324.05;103687;1283;62242;-79
2024/01/14 09:23:29;;;;;;;8.10;5.90;;;;;;;20.93;25.16;100323.53;103738;1284;62715;-79
2024/01/14 09:25:56;;;;;;;9.20;6.20;;;;;;;20.94;25.33;100319.56;103723;1283;63230;-78
2024/01/14 09:28:24;;;;;;;7.90;5.80;;;;;;;20.95;25.15;100321.09;103685;1283;63398;-80
2024/01/14 09:30:50;;;;;;;9.60;6.40;;;;;;;20.95;25.19;100319.31;103608;1281;62144;-81
2024/01/14 09:33:17;;;;;;;8.20;6.00;;;;;;;20.95;25.30;100314.48;103688;1283;63496;-78
2024/01/14 09:35:43;;;;;;;9.10;6.30;;;;;;;20.95;25.21;100307.12;103618;1283;62574;-79
2024/01/14 09:38:09;;;;;;;8.90;6.30;;;;;;;20.95;25.32;100303.88;103602;1285;62164;-78
2024/01/14 09:40:38;;;;;;;8.10;6.00;;;;;;;20.96;25.24;100301.15;103389;1283;62175;-79
2024/01/14 09:43:06;;;;;;;8.50;5.80;;;;;;;20.96;25.28;100290.23;103810;1283;62180;-79
2024/01/14 09:45:33;;;;;;;8.60;6.20;;;;;;;20.97;25.30;100283.92;103642;1285;72521;-78
2024/01/14 09:47:59;;;;;;;8.40;5.80;;;;;;;20.97;25.24;100281.23;103653;1283;75269;-78
2024/01/14 09:50:25;;;;;;;7.90;6.00;;;;;;;20.97;25.41;100276.70;103327;1291;63468;-79
2024/01/14 09:52:50;;;;;;;7.60;6.10;;;;;;;20.98;25.26;100266.30;103759;1282;62193;-79
2024/01/14 09:55:16;;;;;;;7.70;6.10;;;;;;;20.98;25.33;100271.48;103542;1288;62123;-79
2024/01/14 09:57:42;;;;;;;8.20;6.30;;;;;;;20.99;25.24;100265.16;103628;1283;62178;-79
2024/01/14 10:00:08;;;;;;;8.50;6.20;;;;;;;20.99;25.25;100259.23;103746;1283;62174;-79
2024/01/14 10:02:34;;;;;;;8.30;5.90;;;;;;;20.99;25.30;100257.27;103612;1283;62091;-79
2024/01/14 10:05:00;;;;;;;8.50;6.10;;;;;;;20.98;25.39;100255.70;103582;1288;62203;-79
2024/01/14 10:07:26;;;;;;;8.50;6.00;;;;;;;20.99;25.20;100257.30;103637;1283;62123;-78
2024/01/14 10:09:52;;;;;;;8.60;5.90;;;;;;;20.98;25.20;100255.90;103577;1283;62178;-80
2024/01/14 10:12:18;;;;;;;8.10;6.10;;;;;;;20.97;25.37;100249.00;103697;1283;62114;-79
2024/01/14 10:14:45;;;;;;;9.50;6.10;;;;;;;20.95;25.29;100243.41;103745;1282;62514;-79
2024/01/14 10:17:14;;;;;;;9.50;6.20;;;;;;;20.94;25.39;100228.85;103653;1283;62896;-80
2024/01/14 10:19:39;;;;;;;8.00;6.00;;;;;;;20.92;25.39;100227.72;103625;1283;62546;-78
2024/01/14 10:22:06;;;;;;;8.70;6.10;;;;;;;20.90;25.31;100223.06;103602;1283;63411;-79
2024/01/14 10:24:33;;;;;;;8.10;6.10;;;;;;;20.87;25.34;100219.00;103765;1283;63328;-79
2024/01/14 10:26:59;;;;;;;7.70;5.60;;;;;;;20.86;25.32;100213.02;103529;1288;62123;-78
2024/01/14 10:29:24;;;;;;;7.00;5.70;;;;;;;20.84;25.33;100212.81;103680;1285;62127;-79
2024/01/14 10:31:50;;;;;;;8.60;6.30;;;;;;;20.80;25.56;100203.26;103597;1283;62334;-80
2024/01/14 10:34:19;;;;;;;8.00;6.00;;;;;;;20.79;25.43;100195.00;103694;1283;62847;-78
2024/01/14 10:36:45;;;;;;;;;;;;;;;20.76;25.50;100193.41;103532;1283;62279;-79
2024/01/14 10:39:12;;;;;;;10.80;6.40;;;;;;;20.72;25.43;100196.80;103799;1283;62188;-79
2024/01/14 10:41:39;;;;;;;8.00;5.80;;;;;;;20.70;25.49;100196.02;103880;1282;62105;-78
2024/01/14 10:44:06;;;;;;;9.20;6.30;;;;;;;20.68;25.61;100196.33;103803;1282;62165;-77
2024/01/14 10:46:33;;;;;;;9.70;6.50;;;;;;;20.67;25.54;100197.84;103940;1287;62134;-77
2024/01/14 10:49:05;;;;;;;8.60;6.10;;;;;;;20.66;25.49;100186.84;103744;1284;75222;-77
2024/01/14 10:51:31;;;;;;;9.70;6.40;;;;;;;20.65;25.55;100189.13;103886;1288;62434;-78
2024/01/14 10:54:16;;;;;;;9.20;6.10;;;;;;;20.64;25.58;100190.80;103511;1285;62182;-79
2024/01/14 10:56:48;;;;;;;8.20;6.20;;;;;;;20.62;25.63;100190.75;103482;1283;72879;-80
2024/01/14 10:59:13;;;;;;;8.60;6.10;;;;;;;20.60;25.62;100189.98;103572;1284;76148;-78
2024/01/14 11:01:44;;;;;;;8.70;6.10;;;;;;;20.58;25.55;100186.01;103510;1283;62204;-79
2024/01/14 11:04:09;;;;;;;8.90;6.40;;;;;;;20.57;25.53;100178.77;103415;1282;62098;-81
2024/01/14 11:06:35;;;;;;;10.10;6.40;;;;;;;20.55;25.59;100176.23;103323;1288;62251;-79
2024/01/14 11:09:03;;;;;;;9.80;6.40;;;;;;;20.53;25.68;100173.72;103481;1283;62191;-79
2024/01/14 11:11:55;;;;;;;9.30;6.60;;;;;;;20.52;25.56;100162.05;103513;1288;62181;-79